Time;durP1;ratioP1;P1;durP2;ratioP2;P2;SDS_P1;SDS_P2;PMS_P1;PMS_P2;Temp;Humidity;BMP_temperature;BMP_pressure;BME280_temperature;BME280_humidity;BME280_pressure;Samples;Min_cycle;Max_cycle;Signal;HPM_P1;HPM_P2
2021/01/24 00:00:54;;;;;;;18.80;9.80;;;;;;;-1.16;100.00;96139.65;3706928;79;44217;-20
2021/01/24 00:06:00;;;;;;;17.50;9.40;;;;;;;-1.16;100.00;96127.25;3706337;79;43275;-20
2021/01/24 00:11:06;;;;;;;18.10;9.43;;;;;;;-1.12;100.00;96119.39;3688638;79;43492;-20
2021/01/24 00:16:12;;;;;;;20.27;10.03;;;;;;;-1.15;100.00;96129.42;3708811;79;43460;-20
2021/01/24 00:21:18;;;;;;;18.97;10.20;;;;;;;-1.10;100.00;96132.45;3743568;79;43967;-19
2021/01/24 00:26:23;;;;;;;16.70;9.43;;;;;;;-1.06;100.00;96133.84;3708726;79;43188;-19
2021/01/24 00:31:30;;;;;;;18.53;9.87;;;;;;;-1.05;100.00;96137.30;3714658;79;43403;-19
2021/01/24 00:36:36;;;;;;;17.17;9.30;;;;;;;-1.09;100.00;96131.47;3710502;79;43728;-20
2021/01/24 00:41:42;;;;;;;17.03;8.93;;;;;;;-1.06;100.00;96123.77;3742193;79;44012;-19
2021/01/24 00:46:47;;;;;;;16.37;9.43;;;;;;;-1.09;100.00;96116.47;3701588;80;43983;-19
2021/01/24 00:51:54;;;;;;;17.63;9.47;;;;;;;-1.04;100.00;96108.10;3694984;79;44041;-19
2021/01/24 00:56:59;;;;;;;18.27;10.13;;;;;;;-1.03;100.00;96111.56;3708280;79;44061;-19
2021/01/24 01:02:06;;;;;;;19.37;10.10;;;;;;;-1.03;100.00;96108.45;3706934;79;44066;-19
2021/01/24 01:07:12;;;;;;;18.83;9.83;;;;;;;-1.05;100.00;96107.76;3709145;79;43382;-19
2021/01/24 01:12:18;;;;;;;19.00;9.27;;;;;;;-1.07;100.00;96100.96;3655431;80;44146;-18
2021/01/24 01:17:24;;;;;;;18.43;9.47;;;;;;;-1.00;100.00;96105.99;3720012;79;43390;-19
2021/01/24 01:22:30;;;;;;;17.10;9.80;;;;;;;-1.01;100.00;96097.25;3747435;79;43681;-19
2021/01/24 01:27:36;;;;;;;17.13;9.27;;;;;;;-0.97;100.00;96092.50;3708023;79;43483;-19
2021/01/24 01:32:42;;;;;;;15.10;8.70;;;;;;;-0.96;100.00;96090.20;3716562;79;44160;-19
2021/01/24 01:37:48;;;;;;;15.80;8.90;;;;;;;-0.95;100.00;96084.75;3720833;79;44048;-19
2021/01/24 01:42:55;;;;;;;16.77;8.70;;;;;;;-0.92;100.00;96078.84;3743641;79;44120;-19
2021/01/24 01:48:01;;;;;;;15.80;8.97;;;;;;;-0.85;100.00;96079.90;3708233;80;42733;-19
2021/01/24 01:53:07;;;;;;;14.93;8.83;;;;;;;-0.85;100.00;96068.85;3717818;79;44189;-19
2021/01/24 01:58:13;;;;;;;15.17;8.70;;;;;;;-0.85;100.00;96052.99;3727818;79;43719;-19
2021/01/24 02:03:29;;;;;;;16.93;9.17;;;;;;;-0.84;100.00;96045.87;3729477;79;44145;-19
2021/01/24 02:08:41;;;;;;;18.37;9.67;;;;;;;-0.80;100.00;96041.97;3707201;79;44669;-19
2021/01/24 02:13:56;;;;;;;18.57;9.73;;;;;;;-0.74;100.00;96037.90;3730369;79;44054;-19
2021/01/24 02:19:04;;;;;;;18.03;9.70;;;;;;;-0.67;100.00;96038.48;3749204;79;43384;-19
2021/01/24 02:24:14;;;;;;;19.60;9.30;;;;;;;-0.68;100.00;96026.71;3675800;80;44171;-19
2021/01/24 02:29:24;;;;;;;17.93;9.47;;;;;;;-0.66;100.00;96022.95;3737211;79;44474;-19
2021/01/24 02:34:33;;;;;;;20.37;10.33;;;;;;;-0.65;100.00;96023.77;3740596;79;44184;-19
2021/01/24 02:39:40;;;;;;;18.13;9.60;;;;;;;-0.70;100.00;96008.84;3735978;79;44091;-20
2021/01/24 02:44:47;;;;;;;17.53;9.77;;;;;;;-0.66;100.00;96007.09;3748587;79;43697;-19
2021/01/24 02:49:54;;;;;;;20.73;9.83;;;;;;;-0.63;100.00;96004.12;3738506;79;44329;-20
2021/01/24 02:55:00;;;;;;;17.47;10.00;;;;;;;-0.57;100.00;96008.48;3727446;79;43288;-20
2021/01/24 03:00:09;;;;;;;18.47;9.70;;;;;;;-0.55;100.00;95999.91;3719902;79;43975;-20
2021/01/24 03:05:15;;;;;;;20.83;10.13;;;;;;;-0.56;100.00;95993.77;3736516;79;43690;-20
2021/01/24 03:10:22;;;;;;;18.80;10.00;;;;;;;-0.58;100.00;95998.38;3730809;79;44063;-20
2021/01/24 03:15:29;;;;;;;17.70;9.63;;;;;;;-0.53;100.00;96001.41;3736191;79;44035;-20
2021/01/24 03:20:37;;;;;;;18.83;9.50;;;;;;;-0.48;100.00;95999.16;3751236;79;44285;-20
2021/01/24 03:25:44;;;;;;;17.83;8.97;;;;;;;-0.43;100.00;95996.05;3740595;79;43494;-20
2021/01/24 03:30:50;;;;;;;19.37;9.80;;;;;;;-0.40;100.00;95995.72;3750751;79;44640;-20
2021/01/24 03:35:56;;;;;;;17.40;9.63;;;;;;;-0.37;100.00;96000.72;3740673;79;44016;-20
2021/01/24 03:41:02;;;;;;;18.23;10.17;;;;;;;-0.33;100.00;96002.08;3738066;79;44523;-20
2021/01/24 03:46:08;;;;;;;16.80;9.40;;;;;;;-0.31;100.00;95997.95;3672755;79;44043;-20
2021/01/24 03:51:15;;;;;;;17.50;9.20;;;;;;;-0.27;100.00;95996.67;3732966;79;43694;-20
2021/01/24 03:56:21;;;;;;;17.33;9.13;;;;;;;-0.25;100.00;95988.56;3681712;80;43381;-20
2021/01/24 04:01:27;;;;;;;17.87;9.40;;;;;;;-0.20;100.00;95987.62;3673866;80;44079;-20
2021/01/24 04:06:33;;;;;;;18.97;10.23;;;;;;;-0.21;100.00;95988.61;3738552;79;43205;-20
2021/01/24 04:11:39;;;;;;;18.43;9.80;;;;;;;-0.21;100.00;95978.03;3719164;79;43681;-18
2021/01/24 04:16:45;;;;;;;18.17;9.50;;;;;;;-0.18;100.00;95977.22;3662730;80;43314;-18
2021/01/24 04:21:52;;;;;;;18.13;9.57;;;;;;;-0.16;100.00;95973.94;3746791;79;44038;-18
2021/01/24 04:26:58;;;;;;;17.90;9.27;;;;;;;-0.17;100.00;95966.98;3618487;81;43677;-18
2021/01/24 04:32:04;;;;;;;20.27;10.53;;;;;;;-0.25;100.00;95965.61;3614250;81;43447;-19
2021/01/24 04:37:11;;;;;;;19.20;9.43;;;;;;;-0.21;100.00;95958.19;3739385;79;44004;-19
2021/01/24 04:42:17;;;;;;;18.23;9.90;;;;;;;-0.21;100.00;95948.92;3682691;80;42940;-19
2021/01/24 04:47:25;;;;;;;20.53;9.93;;;;;;;-0.23;100.00;95943.77;3727820;79;43701;-19
2021/01/24 04:52:32;;;;;;;18.60;9.23;;;;;;;-0.22;100.00;95932.70;3602535;81;43746;-19
2021/01/24 04:57:38;;;;;;;17.57;9.23;;;;;;;-0.26;100.00;95920.77;3724474;79;44089;-19
2021/01/24 05:02:45;;;;;;;16.47;9.07;;;;;;;-0.19;100.00;95919.17;3682797;80;43314;-19
2021/01/24 05:07:56;;;;;;;17.00;8.50;;;;;;;-0.16;100.00;95921.48;3726765;79;43181;-19
2021/01/24 05:13:03;;;;;;;18.37;8.43;;;;;;;-0.16;100.00;95916.20;3742986;79;43293;-19
2021/01/24 05:18:10;;;;;;;16.27;8.80;;;;;;;-0.17;100.00;95910.56;3596666;81;44499;-19
2021/01/24 05:23:17;;;;;;;18.30;9.57;;;;;;;-0.16;100.00;95907.78;3732568;79;43042;-19
2021/01/24 05:28:25;;;;;;;16.00;8.23;;;;;;;-0.13;100.00;95906.63;3611443;81;42938;-19
2021/01/24 05:33:32;;;;;;;16.47;8.83;;;;;;;-0.10;100.00;95903.68;3729642;79;44062;-19
2021/01/24 05:38:38;;;;;;;17.00;8.77;;;;;;;-0.08;100.00;95904.83;3609293;81;44012;-19
2021/01/24 05:43:46;;;;;;;16.80;8.57;;;;;;;-0.07;100.00;95899.87;3748135;79;43835;-19
2021/01/24 05:48:54;;;;;;;16.77;8.70;;;;;;;-0.03;100.00;95913.95;3675320;80;42943;-19
2021/01/24 05:54:00;;;;;;;17.07;9.27;;;;;;;-0.02;100.00;95918.27;3667565;80;44053;-19
2021/01/24 05:59:08;;;;;;;16.67;8.23;;;;;;;0.01;100.00;95907.03;3674883;80;43458;-19
2021/01/24 06:04:14;;;;;;;15.03;8.40;;;;;;;0.03;100.00;95909.04;3737965;79;44221;-19
2021/01/24 06:09:21;;;;;;;16.37;8.87;;;;;;;0.05;100.00;95911.04;3621421;81;43710;-19
2021/01/24 06:14:28;;;;;;;16.00;8.80;;;;;;;0.04;100.00;95914.16;3731315;79;43515;-19
2021/01/24 06:19:37;;;;;;;17.10;9.07;;;;;;;0.05;100.00;95910.53;3608605;81;43689;-19
2021/01/24 06:24:47;;;;;;;16.90;9.10;;;;;;;0.07;100.00;95913.02;3737460;79;43074;-19
2021/01/24 06:29:55;;;;;;;16.57;9.00;;;;;;;-0.02;100.00;95910.33;3616296;81;42986;-19
2021/01/24 06:35:17;;;;;;;20.37;9.23;;;;;;;0.03;100.00;95913.01;3743931;79;43770;-19
2021/01/24 06:40:29;;;;;;;18.03;9.00;;;;;;;0.08;100.00;95909.38;3687966;80;43999;-19
2021/01/24 06:45:43;;;;;;;16.93;8.97;;;;;;;0.04;100.00;95915.48;3753530;79;43005;-19
2021/01/24 06:50:51;;;;;;;16.83;9.30;;;;;;;0.07;100.00;95911.69;3598603;81;43336;-19
2021/01/24 06:55:58;;;;;;;15.63;8.20;;;;;;;0.06;100.00;95913.52;3743902;79;42677;-18
2021/01/24 07:01:36;;;;;;;15.43;8.43;;;;;;;0.07;100.00;95913.86;3649522;80;44537;-18
2021/01/24 07:06:42;;;;;;;19.10;9.07;;;;;;;0.09;100.00;95918.51;3598488;81;44039;-18
2021/01/24 07:11:52;;;;;;;17.03;8.83;;;;;;;0.06;100.00;95918.00;3718522;79;43381;-19
2021/01/24 07:16:58;;;;;;;16.67;9.53;;;;;;;0.07;100.00;95922.28;3738291;79;43427;-19
2021/01/24 07:22:06;;;;;;;17.53;9.13;;;;;;;0.11;100.00;95930.25;3736893;79;43673;-19
2021/01/24 07:27:14;;;;;;;18.03;9.17;;;;;;;0.14;100.00;95929.94;3706161;79;43361;-19
2021/01/24 07:32:22;;;;;;;16.13;8.63;;;;;;;0.14;100.00;95928.11;3719467;79;44046;-19
2021/01/24 07:37:28;;;;;;;15.13;8.03;;;;;;;0.17;100.00;95928.31;3619877;81;43694;-19
2021/01/24 07:42:35;;;;;;;16.03;8.50;;;;;;;0.20;100.00;95934.59;3641346;81;44038;-19
2021/01/24 07:47:41;;;;;;;15.83;8.37;;;;;;;0.23;100.00;95939.58;3644823;81;43743;-19
2021/01/24 07:52:51;;;;;;;14.73;7.83;;;;;;;0.28;100.00;95938.63;3627724;80;43689;-19
2021/01/24 07:57:57;;;;;;;14.40;7.77;;;;;;;0.33;100.00;95938.63;3692877;79;43697;-19
2021/01/24 08:03:03;;;;;;;13.43;7.57;;;;;;;0.35;100.00;95944.59;3713832;79;44152;-19
2021/01/24 08:08:11;;;;;;;16.70;8.67;;;;;;;0.38;100.00;95944.29;3711695;79;43681;-19
2021/01/24 08:13:17;;;;;;;15.20;8.47;;;;;;;0.43;100.00;95948.12;3703523;79;43515;-19
2021/01/24 08:18:25;;;;;;;14.77;8.53;;;;;;;0.47;100.00;95951.27;3712197;79;44470;-20
2021/01/24 08:23:32;;;;;;;15.03;8.30;;;;;;;0.52;100.00;95954.28;3706260;79;43714;-20
2021/01/24 08:28:38;;;;;;;16.23;8.50;;;;;;;0.57;100.00;95957.27;3559400;82;44468;-20
2021/01/24 08:33:44;;;;;;;13.23;7.93;;;;;;;0.65;100.00;95956.98;3680665;79;43675;-20
2021/01/24 08:38:55;;;;;;;12.23;7.30;;;;;;;0.73;100.00;95945.90;3596530;81;43306;-22
2021/01/24 08:44:11;;;;;;;12.23;7.07;;;;;;;0.83;100.00;95945.77;3614601;81;44023;-22
2021/01/24 08:49:24;;;;;;;10.37;6.53;;;;;;;0.92;100.00;95955.39;3642627;80;44507;-21
2021/01/24 08:54:32;;;;;;;13.03;7.43;;;;;;;1.00;100.00;95955.91;3639248;81;43408;-21
2021/01/24 08:59:39;;;;;;;9.73;5.80;;;;;;;1.16;100.00;95959.09;3597861;81;43717;-22
2021/01/24 09:04:48;;;;;;;9.40;5.13;;;;;;;1.31;100.00;95963.76;3607867;81;44220;-22
2021/01/24 09:09:54;;;;;;;8.20;5.10;;;;;;;1.38;100.00;95964.75;3704212;79;43418;-21
2021/01/24 09:15:00;;;;;;;8.97;5.60;;;;;;;1.39;100.00;95970.39;3561425;82;43694;-21
2021/01/24 09:20:10;;;;;;;9.73;6.03;;;;;;;1.53;100.00;95972.88;3697870;79;44445;-20
2021/01/24 09:25:16;;;;;;;9.20;5.77;;;;;;;1.73;100.00;95971.23;3702795;79;44039;-21
2021/01/24 09:30:24;;;;;;;7.57;5.00;;;;;;;1.82;100.00;95983.00;3560684;82;43329;-21
2021/01/24 09:35:30;;;;;;;8.67;5.73;;;;;;;1.81;100.00;95982.70;3689289;79;44056;-21
2021/01/24 09:40:36;;;;;;;8.27;5.63;;;;;;;1.81;100.00;95989.33;3739404;79;43352;-21
2021/01/24 09:45:42;;;;;;;9.60;6.20;;;;;;;1.99;100.00;95997.59;3736044;79;43723;-21
2021/01/24 09:50:48;;;;;;;10.27;6.97;;;;;;;2.07;100.00;95996.77;3687883;80;43717;-20
2021/01/24 09:55:56;;;;;;;8.87;5.83;;;;;;;2.02;100.00;95998.59;3733156;79;44083;-21
2021/01/24 10:01:02;;;;;;;8.33;5.50;;;;;;;1.97;100.00;96005.74;3598544;81;43712;-21
2021/01/24 10:06:08;;;;;;;9.27;6.27;;;;;;;2.08;100.00;96012.52;3720962;79;43293;-22
2021/01/24 10:11:15;;;;;;;7.80;5.30;;;;;;;2.17;100.00;96013.34;3670638;80;43707;-22
2021/01/24 10:16:21;;;;;;;8.33;4.43;;;;;;;2.41;100.00;96012.98;3657825;80;44022;-21
2021/01/24 10:21:27;;;;;;;6.70;4.47;;;;;;;2.39;100.00;96003.86;3730700;79;44519;-21
2021/01/24 10:26:34;;;;;;;5.10;3.80;;;;;;;2.27;100.00;96011.85;3674303;80;43185;-23
2021/01/24 10:31:41;;;;;;;5.83;4.60;;;;;;;2.20;100.00;96017.00;3718501;79;44024;-22
2021/01/24 10:36:46;;;;;;;7.07;4.07;;;;;;;2.40;100.00;96028.10;3653817;80;43702;-22
2021/01/24 10:41:52;;;;;;;6.07;3.90;;;;;;;2.43;100.00;96029.58;3609230;80;43316;-23
2021/01/24 10:46:58;;;;;;;5.40;3.50;;;;;;;2.36;100.00;96026.77;3596795;78;43273;-24
2021/01/24 10:52:06;;;;;;;4.23;3.07;;;;;;;2.50;100.00;96029.73;3671885;79;44061;-20
2021/01/24 10:57:12;;;;;;;4.70;3.03;;;;;;;2.42;100.00;96043.34;3675583;79;44118;-22
2021/01/24 11:02:17;;;;;;;3.33;2.40;;;;;;;2.30;100.00;96036.73;3678976;79;43718;-22
2021/01/24 11:07:23;;;;;;;1.83;1.50;;;;;;;2.17;100.00;96036.44;3668335;80;44062;-22
2021/01/24 11:12:29;;;;;;;2.23;1.50;;;;;;;2.19;100.00;96039.73;3680668;79;43330;-22
2021/01/24 11:17:37;;;;;;;2.10;1.60;;;;;;;2.20;100.00;96045.37;3669628;80;44062;-22
2021/01/24 11:22:43;;;;;;;2.63;1.70;;;;;;;2.25;100.00;96050.52;3683247;79;44015;-22
2021/01/24 11:27:50;;;;;;;2.80;1.90;;;;;;;2.25;100.00;96058.48;3659283;79;44707;-22
2021/01/24 11:32:57;;;;;;;2.17;1.70;;;;;;;2.18;100.00;96054.85;3679547;79;43588;-22
2021/01/24 11:38:04;;;;;;;3.00;1.97;;;;;;;2.17;100.00;96055.84;3662960;80;44058;-22
2021/01/24 11:43:10;;;;;;;2.10;1.60;;;;;;;2.24;100.00;96056.83;3680612;79;43494;-22
2021/01/24 11:48:17;;;;;;;2.40;1.80;;;;;;;2.25;100.00;96059.81;3674229;79;44458;-22
2021/01/24 11:53:24;;;;;;;1.90;1.57;;;;;;;2.24;100.00;96064.80;3695912;79;43464;-22
2021/01/24 11:58:30;;;;;;;2.17;1.90;;;;;;;2.23;100.00;96059.66;3650769;80;43376;-22
2021/01/24 12:03:36;;;;;;;1.87;1.40;;;;;;;2.32;100.00;96065.29;3686185;79;43668;-22
2021/01/24 12:08:41;;;;;;;1.90;1.50;;;;;;;2.25;100.00;96062.47;3669600;80;43709;-22
2021/01/24 12:13:48;;;;;;;1.17;0.93;;;;;;;2.24;100.00;96067.96;3675212;79;43436;-22
2021/01/24 12:18:53;;;;;;;1.00;0.80;;;;;;;2.17;100.00;96069.64;3650504;79;44591;-22
2021/01/24 12:23:59;;;;;;;0.70;0.70;;;;;;;2.10;100.00;96071.61;3661070;79;43620;-22
2021/01/24 12:29:05;;;;;;;0.70;0.70;;;;;;;2.04;100.00;96079.41;3663268;79;44093;-22
2021/01/24 12:34:11;;;;;;;1.03;0.70;;;;;;;1.99;100.00;96084.74;3678528;79;43316;-22
2021/01/24 12:39:17;;;;;;;1.27;0.90;;;;;;;1.94;100.00;96084.91;3663962;80;43452;-22
2021/01/24 12:44:23;;;;;;;0.70;0.70;;;;;;;1.88;100.00;96078.44;3670240;79;44472;-21
2021/01/24 12:49:28;;;;;;;1.00;0.90;;;;;;;1.83;100.00;96089.52;3662023;79;44036;-22
2021/01/24 12:54:34;;;;;;;1.00;0.90;;;;;;;1.75;100.00;96090.84;3682851;79;43130;-21
2021/01/24 12:59:42;;;;;;;3.00;2.33;;;;;;;1.67;100.00;96100.13;3644263;79;44172;-21
2021/01/24 13:04:48;;;;;;;6.80;3.80;;;;;;;1.54;100.00;96105.88;3681487;79;44372;-21
2021/01/24 13:09:54;;;;;;;9.77;5.30;;;;;;;1.43;100.00;96114.98;3654584;80;44720;-21
2021/01/24 13:15:02;;;;;;;9.57;5.77;;;;;;;1.34;100.00;96122.59;3677300;79;43686;-21
2021/01/24 13:20:10;;;;;;;8.83;5.53;;;;;;;1.19;100.00;96121.86;3648440;79;410395;-21
2021/01/24 13:25:16;;;;;;;9.00;5.50;;;;;;;1.17;100.00;96119.05;3688383;79;44012;-21
2021/01/24 13:30:25;;;;;;;8.20;4.83;;;;;;;1.11;100.00;96139.55;3663250;80;43988;-21
2021/01/24 13:35:32;;;;;;;10.87;6.13;;;;;;;1.03;100.00;96136.36;3664513;79;43443;-21
2021/01/24 13:40:38;;;;;;;15.57;8.70;;;;;;;0.96;100.00;96144.62;3663926;78;43369;-21
2021/01/24 13:45:44;;;;;;;16.17;8.53;;;;;;;0.82;100.00;96154.80;3685553;79;44158;-21
2021/01/24 13:50:51;;;;;;;12.60;6.37;;;;;;;0.72;100.00;96168.66;3685715;79;43970;-21
2021/01/24 13:55:56;;;;;;;10.77;6.00;;;;;;;0.59;100.00;96178.32;3696859;78;43379;-21
2021/01/24 14:01:04;;;;;;;9.23;5.13;;;;;;;0.56;100.00;96187.92;3551953;81;43455;-21
2021/01/24 14:06:10;;;;;;;8.20;4.83;;;;;;;0.47;100.00;96198.13;3618990;80;43706;-20
2021/01/24 14:11:16;;;;;;;7.73;4.30;;;;;;;0.39;100.00;96209.48;3642609;80;44034;-21
2021/01/24 14:16:22;;;;;;;7.93;4.83;;;;;;;0.24;100.00;96217.09;3622390;81;44077;-21
2021/01/24 14:21:28;;;;;;;8.80;5.17;;;;;;;0.14;100.00;96225.95;3624714;80;44166;-21
2021/01/24 14:26:33;;;;;;;9.53;5.67;;;;;;;0.08;100.00;96233.66;3614388;80;44629;-21
2021/01/24 14:31:45;;;;;;;10.43;5.77;;;;;;;0.06;100.00;96231.17;3613493;80;44079;-21
2021/01/24 14:36:49;;;;;;;13.10;6.50;;;;;;;0.03;100.00;96242.55;3599772;81;43818;-21
2021/01/24 14:41:54;;;;;;;12.80;7.37;;;;;;;-0.02;100.00;96246.98;3605144;80;43607;-21
2021/01/24 14:47:01;;;;;;;11.80;6.80;;;;;;;-0.06;100.00;96253.53;3609802;81;43755;-21
2021/01/24 14:52:07;;;;;;;13.37;7.47;;;;;;;-0.09;100.00;96257.32;3611351;80;44332;-21
2021/01/24 14:57:17;;;;;;;15.43;8.27;;;;;;;-0.15;100.00;96272.45;3617799;80;44034;-21
2021/01/24 15:02:23;;;;;;;15.37;7.90;;;;;;;-0.21;100.00;96272.55;3590664;80;44132;-21
2021/01/24 15:07:30;;;;;;;16.30;9.03;;;;;;;-0.20;100.00;96300.68;3614249;80;43397;-21
2021/01/24 15:12:35;;;;;;;15.97;8.80;;;;;;;-0.24;100.00;96298.00;3620765;80;43317;-21
2021/01/24 15:17:41;;;;;;;16.67;8.37;;;;;;;-0.24;100.00;96308.59;3596693;81;43148;-21
2021/01/24 15:22:48;;;;;;;16.50;8.17;;;;;;;-0.24;100.00;96308.59;3623183;80;44029;-21
2021/01/24 15:27:54;;;;;;;15.67;8.40;;;;;;;-0.27;100.00;96314.64;3610391;81;44026;-21
2021/01/24 15:33:00;;;;;;;13.37;7.50;;;;;;;-0.24;100.00;96324.94;3629499;80;43399;-21
2021/01/24 15:38:06;;;;;;;14.97;7.77;;;;;;;-0.28;100.00;96334.98;3596106;81;44789;-20
2021/01/24 15:43:12;;;;;;;15.57;8.30;;;;;;;-0.24;100.00;96341.66;3613231;80;43710;-20
2021/01/24 15:48:21;;;;;;;14.80;8.03;;;;;;;-0.23;100.00;96347.77;3617424;81;43585;-21
2021/01/24 15:53:27;;;;;;;14.07;8.00;;;;;;;-0.23;100.00;96358.36;3624516;80;43754;-21
2021/01/24 15:58:33;;;;;;;16.60;8.47;;;;;;;-0.27;100.00;96370.20;3614139;81;43979;-21
2021/01/24 16:03:40;;;;;;;18.00;8.60;;;;;;;-0.30;100.00;96378.45;3620497;80;43692;-21
2021/01/24 16:08:49;;;;;;;19.03;9.57;;;;;;;-0.27;100.00;96376.81;3595423;81;43325;-21
2021/01/24 16:13:55;;;;;;;15.27;8.13;;;;;;;-0.26;100.00;96381.13;3624769;80;44095;-21
2021/01/24 16:19:01;;;;;;;17.37;8.60;;;;;;;-0.25;100.00;96390.73;3604800;81;44061;-21
2021/01/24 16:24:08;;;;;;;14.67;8.80;;;;;;;-0.21;100.00;96405.36;3612019;80;43390;-20
2021/01/24 16:29:14;;;;;;;16.00;8.67;;;;;;;-0.22;100.00;96407.16;3595532;81;43443;-21
2021/01/24 16:34:20;;;;;;;17.20;8.90;;;;;;;-0.22;100.00;96422.22;3622730;80;43346;-22
2021/01/24 16:39:26;;;;;;;14.90;8.20;;;;;;;-0.21;100.00;96428.67;3604007;81;44071;-21
2021/01/24 16:44:32;;;;;;;16.63;9.37;;;;;;;-0.21;100.00;96441.91;3622380;80;42826;-21
2021/01/24 16:49:38;;;;;;;18.63;9.80;;;;;;;-0.17;100.00;96451.23;3608140;81;44106;-21
2021/01/24 16:54:44;;;;;;;17.87;9.43;;;;;;;-0.11;100.00;96453.80;3601072;80;44487;-21
2021/01/24 16:59:50;;;;;;;16.30;9.10;;;;;;;-0.13;100.00;96463.69;3583161;81;44101;-21
2021/01/24 17:04:56;;;;;;;19.37;10.20;;;;;;;-0.13;100.00;96464.20;3618488;80;43069;-21
2021/01/24 17:10:06;;;;;;;18.20;9.77;;;;;;;-0.10;100.00;96463.88;3607134;81;43682;-21
2021/01/24 17:15:14;;;;;;;17.47;9.80;;;;;;;-0.07;100.00;96466.25;3624446;80;43420;-21
2021/01/24 17:20:22;;;;;;;17.30;10.03;;;;;;;-0.11;100.00;96466.19;3597138;81;43909;-22
2021/01/24 17:25:29;;;;;;;17.53;10.00;;;;;;;-0.12;100.00;96475.95;3701241;79;43694;-22
2021/01/24 17:30:35;;;;;;;17.83;10.30;;;;;;;-0.11;100.00;96472.80;3637594;80;44032;-22
2021/01/24 17:35:41;;;;;;;17.97;9.90;;;;;;;-0.09;100.00;96477.00;3614232;81;43332;-22
2021/01/24 17:40:47;;;;;;;18.00;10.00;;;;;;;-0.10;100.00;96487.23;3620635;80;43756;-22
2021/01/24 17:45:53;;;;;;;117.57;75.43;;;;;;;-0.07;100.00;96491.40;3620897;80;43403;-22
2021/01/24 17:51:02;;;;;;;25.47;16.63;;;;;;;-0.07;100.00;96499.34;3678351;79;44573;-22
2021/01/24 17:56:07;;;;;;;21.43;11.90;;;;;;;-0.06;100.00;96500.52;3684736;80;43338;-20
2021/01/24 18:01:13;;;;;;;24.47;13.10;;;;;;;-0.05;100.00;96509.30;3566820;81;44027;-20
2021/01/24 18:06:19;;;;;;;25.03;13.30;;;;;;;-0.02;100.00;96509.84;3609009;80;43669;-21
2021/01/24 18:11:25;;;;;;;28.70;13.73;;;;;;;0.02;100.00;96517.52;3611633;80;43464;-21
2021/01/24 18:16:31;;;;;;;23.10;12.20;;;;;;;0.04;100.00;96519.53;3623248;81;44575;-20
2021/01/24 18:21:38;;;;;;;25.23;13.20;;;;;;;0.09;100.00;96526.55;3617360;81;43101;-21
2021/01/24 18:26:44;;;;;;;25.57;14.10;;;;;;;0.11;100.00;96527.24;3626893;81;44150;-21
2021/01/24 18:31:50;;;;;;;24.03;12.67;;;;;;;0.11;100.00;96532.54;3605799;81;44050;-20
2021/01/24 18:36:56;;;;;;;21.50;11.77;;;;;;;0.12;100.00;96535.53;3633770;81;44086;-20
2021/01/24 18:42:02;;;;;;;23.53;13.07;;;;;;;0.12;100.00;96539.50;3628153;80;44550;-20
2021/01/24 18:47:08;;;;;;;21.73;12.37;;;;;;;0.21;100.00;96538.64;3623129;81;43690;-23
2021/01/24 18:52:14;;;;;;;26.03;14.10;;;;;;;0.23;100.00;96544.64;3627530;79;44421;-21
2021/01/24 18:57:20;;;;;;;23.73;12.90;;;;;;;0.28;100.00;96550.36;3660558;81;43690;-21
2021/01/24 19:02:29;;;;;;;25.93;13.40;;;;;;;0.21;100.00;96550.56;3664186;80;43994;-21
2021/01/24 19:07:35;;;;;;;26.53;13.67;;;;;;;0.26;100.00;96550.98;3663596;81;44250;-21
2021/01/24 19:12:42;;;;;;;25.13;13.43;;;;;;;0.32;100.00;96557.98;3664863;80;44485;-21
2021/01/24 19:17:49;;;;;;;27.17;13.30;;;;;;;0.37;100.00;96559.73;3664648;79;44621;-22
2021/01/24 19:22:55;;;;;;;33.97;14.00;;;;;;;0.35;100.00;96563.01;3666096;80;43376;-21
2021/01/24 19:28:02;;;;;;;28.63;13.67;;;;;;;0.30;100.00;96566.91;3656734;80;42982;-21
2021/01/24 19:33:08;;;;;;;27.53;14.33;;;;;;;0.37;100.00;96570.33;3664537;80;44146;-22
2021/01/24 19:38:15;;;;;;;29.13;13.23;;;;;;;0.38;100.00;96566.70;3661211;81;44054;-22
2021/01/24 19:43:21;;;;;;;28.57;13.57;;;;;;;0.37;100.00;96574.30;3673748;79;43281;-22
2021/01/24 19:48:28;;;;;;;28.50;13.50;;;;;;;0.47;100.00;96570.31;3626845;80;43276;-20
2021/01/24 19:53:34;;;;;;;23.43;12.87;;;;;;;0.85;100.00;96559.20;3629144;82;43340;-20
2021/01/24 19:58:40;;;;;;;25.77;12.23;;;;;;;1.10;100.00;96563.02;3629063;82;43673;-21
2021/01/24 20:03:46;;;;;;;21.87;11.57;;;;;;;1.01;100.00;96571.36;3629555;82;44041;-21
2021/01/24 20:08:52;;;;;;;23.80;11.80;;;;;;;1.23;100.00;96576.73;3628177;82;44083;-21
2021/01/24 20:13:58;;;;;;;20.60;10.83;;;;;;;1.32;100.00;96572.88;3631398;81;44047;-18
2021/01/24 20:19:05;;;;;;;19.27;10.60;;;;;;;1.05;100.00;96580.70;3628825;80;43514;-21
2021/01/24 20:24:11;;;;;;;20.03;10.63;;;;;;;0.94;100.00;96590.64;3628926;81;43716;-21
2021/01/24 20:29:17;;;;;;;24.20;10.47;;;;;;;0.83;100.00;96595.63;3628837;82;43403;-21
2021/01/24 20:34:24;;;;;;;21.40;10.93;;;;;;;0.74;100.00;96602.66;3628712;82;43722;-23
2021/01/24 20:39:33;;;;;;;17.70;9.93;;;;;;;0.71;100.00;96603.76;3627512;82;44119;-23
2021/01/24 20:44:37;;;;;;;18.57;10.03;;;;;;;0.68;100.00;96595.27;3632280;81;43413;-21
2021/01/24 20:49:43;;;;;;;17.60;10.47;;;;;;;0.67;100.00;96605.52;3663128;79;43685;-21
2021/01/24 20:54:49;;;;;;;18.27;9.37;;;;;;;0.65;100.00;96604.85;3664978;79;43711;-20
2021/01/24 20:59:55;;;;;;;17.43;9.30;;;;;;;0.63;100.00;96608.95;3663479;81;43465;-21
2021/01/24 21:05:01;;;;;;;17.93;9.47;;;;;;;0.69;100.00;96612.37;3662521;81;44485;-21
2021/01/24 21:10:08;;;;;;;19.23;9.27;;;;;;;0.59;100.00;96607.55;3652957;81;44473;-21
2021/01/24 21:15:15;;;;;;;14.47;7.93;;;;;;;0.58;100.00;96617.34;3663607;81;44054;-21
2021/01/24 21:20:22;;;;;;;14.27;7.60;;;;;;;0.60;100.00;96618.03;3663959;81;43672;-21
2021/01/24 21:25:28;;;;;;;14.97;8.03;;;;;;;0.58;100.00;96619.98;3666214;79;43173;-22
2021/01/24 21:30:35;;;;;;;13.17;7.87;;;;;;;0.67;100.00;96614.79;3663190;81;43506;-21
2021/01/24 21:35:41;;;;;;;15.73;8.30;;;;;;;0.52;100.00;96619.25;3664701;81;44148;-21
2021/01/24 21:40:47;;;;;;;15.77;7.83;;;;;;;0.67;100.00;96609.49;3665677;80;44043;-21
2021/01/24 21:45:54;;;;;;;15.40;7.40;;;;;;;0.67;100.00;96626.72;3652798;80;44049;-21
2021/01/24 21:51:00;;;;;;;14.30;7.80;;;;;;;0.66;100.00;96625.05;3614282;82;44121;-21
2021/01/24 21:56:08;;;;;;;14.20;7.70;;;;;;;0.54;100.00;96625.72;3629131;80;44114;-21
2021/01/24 22:01:14;;;;;;;15.73;7.80;;;;;;;0.49;100.00;96630.59;3615090;81;44533;-21
2021/01/24 22:06:22;;;;;;;12.27;7.27;;;;;;;0.38;100.00;96644.84;3627536;81;43688;-21
2021/01/24 22:11:28;;;;;;;12.23;6.13;;;;;;;0.42;100.00;96644.89;3611810;82;44050;-21
2021/01/24 22:16:34;;;;;;;11.33;6.50;;;;;;;0.30;100.00;96652.98;3612535;82;44151;-21
2021/01/24 22:21:40;;;;;;;12.40;6.27;;;;;;;0.31;100.00;96665.77;3612460;82;43682;-21
2021/01/24 22:26:47;;;;;;;12.03;6.53;;;;;;;0.33;100.00;96668.26;3611470;81;44447;-21
2021/01/24 22:31:54;;;;;;;10.43;5.77;;;;;;;0.37;100.00;96666.51;3556015;83;44180;-21
2021/01/24 22:37:01;;;;;;;12.93;6.27;;;;;;;0.32;100.00;96658.64;3695610;80;44046;-21
2021/01/24 22:42:08;;;;;;;12.37;6.07;;;;;;;0.38;100.00;96656.77;3695165;80;43458;-21
2021/01/24 22:47:13;;;;;;;12.53;6.30;;;;;;;0.30;100.00;96663.59;3684384;79;44003;-21
2021/01/24 22:52:19;;;;;;;13.50;6.53;;;;;;;0.29;100.00;96670.36;3669568;81;44539;-21
2021/01/24 22:57:26;;;;;;;12.03;6.43;;;;;;;0.31;100.00;96668.41;3669420;81;44532;-21
2021/01/24 23:02:31;;;;;;;10.57;6.13;;;;;;;0.34;100.00;96670.78;3674698;79;44003;-21
2021/01/24 23:07:38;;;;;;;12.20;6.50;;;;;;;0.37;100.00;96685.55;3669789;81;43759;-21
2021/01/24 23:12:43;;;;;;;12.50;6.60;;;;;;;0.35;100.00;96683.53;3671270;81;43956;-21
2021/01/24 23:17:49;;;;;;;13.17;6.97;;;;;;;0.39;100.00;96676.98;3670636;81;44053;-21
2021/01/24 23:22:56;;;;;;;12.37;6.20;;;;;;;0.34;100.00;96684.50;3675429;80;44093;-21
2021/01/24 23:28:02;;;;;;;15.60;6.97;;;;;;;0.42;100.00;96681.98;3670196;81;44466;-20
2021/01/24 23:33:10;;;;;;;10.63;6.30;;;;;;;0.33;100.00;96692.95;3670468;79;44523;-21
2021/01/24 23:38:15;;;;;;;12.77;6.30;;;;;;;0.32;100.00;96694.39;3669515;81;44033;-21